METAR UND TAF INFORMATION
LHBP 211130Z 31010KT 250V340 CAVOK 28/18 Q1021 NOSIG

 FLUGHAFENKARTE

 RUNWAY INFORMATION
Runway 13L Runway length 12162 ft Runway width 149 ft
Runway elevation 495 ft Runway displaced threshold 0 ft Runway heading 132
Runway 31R Runway length 12162 ft Runway width 149 ft
Runway elevation 417 ft Runway displaced threshold 0 ft Runway heading 312
Runway 13R Runway length 9875 ft Runway width 149 ft
Runway elevation 450 ft Runway displaced threshold 0 ft Runway heading 132
Runway 31L Runway length 9875 ft Runway width 149 ft
Runway elevation 450 ft Runway displaced threshold 0 ft Runway heading 312

 AIRPORT FREQUENCIES
Type ACC Name BUDAPEST A Frequency 129.7 MHZ
Type APP Name DIRECTOR Frequency 119.5 MHZ
Type APRS Name Apron Guid Frequency 122.45 MHZ
Type APRW Name Apron Guid Frequency 131.55 MHZ
Type ATIS Name ATIS Frequency 132.375 MHZ
Type CDC Name Delivery Frequency 134.55 MHZ
Type GND Name GND Frequency 121.9 MHZ
Type TWR Name TWR Frequency 118.1 MHZ

 AIRPORT NEAR NAVIGATION AIDS
Type VOR-DME Name Budapest Frequency 117300 KHZ
Type VOR-DME Name Monor Frequency 112500 KHZ
Type NDB Name Monor Frequency 288 KHZ
Type VOR-DME Name Tapiosap Frequency 115900 KHZ
Type NDB Name Tapiosap Frequency 306 KHZ